地図

経路データ

SID SEASON NUMBER BASIN SUBBASIN NAME ISO_TIME NATURE LAT LON WMO_WIND WMO_PRES WMO_AGENCY TRACK_TYPE DIST2LAND LANDFALL IFLAG USA_AGENCY USA_ATCF_ID USA_LAT USA_LON USA_RECORD USA_STATUS USA_WIND USA_PRES USA_SSHS USA_R34_NE USA_R34_SE USA_R34_SW USA_R34_NW USA_R50_NE USA_R50_SE USA_R50_SW USA_R50_NW USA_R64_NE USA_R64_SE USA_R64_SW USA_R64_NW USA_POCI USA_ROCI USA_RMW USA_EYE TOKYO_LAT TOKYO_LON TOKYO_GRADE TOKYO_WIND TOKYO_PRES TOKYO_R50_DIR TOKYO_R50_LONG TOKYO_R50_SHORT TOKYO_R30_DIR TOKYO_R30_LONG TOKYO_R30_SHORT TOKYO_LAND CMA_LAT CMA_LON CMA_CAT CMA_WIND CMA_PRES HKO_LAT HKO_LON HKO_CAT HKO_WIND HKO_PRES NEWDELHI_LAT NEWDELHI_LON NEWDELHI_GRADE NEWDELHI_WIND NEWDELHI_PRES NEWDELHI_CI NEWDELHI_DP NEWDELHI_POCI REUNION_LAT REUNION_LON REUNION_TYPE REUNION_WIND REUNION_PRES REUNION_TNUM REUNION_CI REUNION_RMW REUNION_R34_NE REUNION_R34_SE REUNION_R34_SW REUNION_R34_NW REUNION_R50_NE REUNION_R50_SE REUNION_R50_SW REUNION_R50_NW REUNION_R64_NE REUNION_R64_SE REUNION_R64_SW REUNION_R64_NW BOM_LAT BOM_LON BOM_TYPE BOM_WIND BOM_PRES BOM_TNUM BOM_CI BOM_RMW BOM_R34_NE BOM_R34_SE BOM_R34_SW BOM_R34_NW BOM_R50_NE BOM_R50_SE BOM_R50_SW BOM_R50_NW BOM_R64_NE BOM_R64_SE BOM_R64_SW BOM_R64_NW BOM_ROCI BOM_POCI BOM_EYE BOM_POS_METHOD BOM_PRES_METHOD NADI_LAT NADI_LON NADI_CAT NADI_WIND NADI_PRES WELLINGTON_LAT WELLINGTON_LON WELLINGTON_WIND WELLINGTON_PRES DS824_LAT DS824_LON DS824_STAGE DS824_WIND DS824_PRES TD9636_LAT TD9636_LON TD9636_STAGE TD9636_WIND TD9636_PRES TD9635_LAT TD9635_LON TD9635_WIND TD9635_PRES TD9635_ROCI NEUMANN_LAT NEUMANN_LON NEUMANN_CLASS NEUMANN_WIND NEUMANN_PRES MLC_LAT MLC_LON MLC_CLASS MLC_WIND MLC_PRES USA_GUST BOM_GUST BOM_GUST_PER REUNION_GUST REUNION_GUST_PER USA_SEAHGT USA_SEARAD_NE USA_SEARAD_SE USA_SEARAD_SW USA_SEARAD_NW STORM_SPEED STORM_DIR
1995032S10095 1995 5 SI WA HEIDA 1995-01-31 18:00:00 TS -10.0000 95.0000 main 1024 1024 O___________O_ jtwc_sh SH111995 -10.0000 95.0000 15 -1 -10.0000 95.0000 TC 15 5 168
1995032S10095 1995 5 SI WA HEIDA 1995-01-31 21:00:00 TS -10.2600 95.0500 main 1050 1050 P___________P_ SH111995 -10.2600 95.0500 15 -1 -10.2600 95.0500 TC 15 5 169
1995032S10095 1995 5 SI WA HEIDA 1995-02-01 00:00:00 TS -10.5000 95.1000 main 1070 1070 O___________O_ jtwc_sh SH111995 -10.5000 95.1000 15 -1 -10.5000 95.1000 TC 15 5 168
1995032S10095 1995 5 SI WA HEIDA 1995-02-01 03:00:00 TS -10.7075 95.1500 main 1084 1084 P___________P_ SH111995 -10.7075 95.1500 15 -1 -10.7075 95.1500 TC 15 4 167
1995032S10095 1995 5 SI WA HEIDA 1995-02-01 06:00:00 TS -10.9000 95.2000 main 1100 1100 O___________O_ jtwc_sh SH111995 -10.9000 95.2000 15 -1 -10.9000 95.2000 TC 15 4 168
1995032S10095 1995 5 SI WA HEIDA 1995-02-01 09:00:00 TS -11.1075 95.2425 main 1116 1108 P___________P_ SH111995 -11.1075 95.2425 15 -1 -11.1075 95.2425 TC 15 4 167
1995032S10095 1995 5 SI WA HEIDA 1995-02-01 12:00:00 TS -11.3000 95.3000 main 1124 1124 O___________O_ jtwc_sh SH111995 -11.3000 95.3000 15 -1 -11.3000 95.3000 TC 15 4 157
1995032S10095 1995 5 SI WA HEIDA 1995-02-01 15:00:00 TS -11.4575 95.3925 main 1133 1125 P___________P_ SH111995 -11.4575 95.3925 15 -1 -11.4575 95.3925 TC 15 4 147
1995032S10095 1995 5 SI WA HEIDA 1995-02-01 18:00:00 TS -11.6000 95.5000 main 1134 1134 O___________O_ jtwc_sh SH111995 -11.6000 95.5000 15 -1 -11.6000 95.5000 TC 15 4 144
1995032S10095 1995 5 SI WA HEIDA 1995-02-01 21:00:00 TS -11.7500 95.6075 main 1135 1136 P___________P_ SH111995 -11.7500 95.6075 15 -1 -11.7500 95.6075 TC 15 4 147
1995032S10095 1995 5 SI WA HEIDA 1995-02-02 00:00:00 TS -11.9000 95.7000 main 1145 1145 O___________O_ jtwc_sh SH111995 -11.9000 95.7000 15 -1 -11.9000 95.7000 TC 15 3 154
1995032S10095 1995 5 SI WA HEIDA 1995-02-02 03:00:00 TS -12.0500 95.7575 main 1146 1146 P___________P_ SH111995 -12.0500 95.7575 15 -1 -12.0500 95.7575 TC 15 3 163
1995032S10095 1995 5 SI WA HEIDA 1995-02-02 06:00:00 TS -12.2000 95.8000 main 1163 1163 O___________O_ jtwc_sh SH111995 -12.2000 95.8000 15 -1 -12.2000 95.8000 TC 15 3 160
1995032S10095 1995 5 SI WA HEIDA 1995-02-02 09:00:00 TS -12.3425 95.8650 main 1164 1164 P___________P_ SH111995 -12.3425 95.8650 17 -1 -12.3425 95.8650 TC 17 3 163
1995032S10095 1995 5 SI WA HEIDA 1995-02-02 12:00:00 TS -12.5000 95.9000 main 1181 1181 O___________O_ jtwc_sh SH111995 -12.5000 95.9000 20 -1 -12.5000 95.9000 TC 20 4 0
1995032S10095 1995 5 SI WA HEIDA 1995-02-02 15:00:00 TS -12.6925 95.8800 main 1198 1198 P___________P_ SH111995 -12.6925 95.8800 20 -1 -12.6925 95.8800 TC 20 4 193
1995032S10095 1995 5 SI WA HEIDA 1995-02-02 18:00:00 TS -12.9000 95.8000 main 1222 1222 O___________O_ jtwc_sh SH111995 -12.9000 95.8000 20 -1 -12.9000 95.8000 TC 20 5 205
1995032S10095 1995 5 SI WA HEIDA 1995-02-02 21:00:00 TS -13.1000 95.6800 main 1246 1246 P___________P_ SH111995 -13.1000 95.6800 20 -1 -13.1000 95.6800 TC 20 5 216
1995032S10095 1995 5 SI WA HEIDA 1995-02-03 00:00:00 TS -13.3000 95.5000 main 1277 1277 O___________O_ jtwc_sh SH111995 -13.3000 95.5000 20 -1 -13.3000 95.5000 TC 20 6 225
1995032S10095 1995 5 SI WA HEIDA 1995-02-03 03:00:00 TS -13.5000 95.2725 main 1308 1308 P___________P_ SH111995 -13.5000 95.2725 20 -1 -13.5000 95.2725 TC 20 6 231
1995032S10095 1995 5 SI WA HEIDA 1995-02-03 06:00:00 TS -13.7000 95.0000 main 1346 1346 O___________O_ jtwc_sh SH111995 -13.7000 95.0000 20 -1 -13.7000 95.0000 TC 20 7 234
1995032S10095 1995 5 SI WA HEIDA 1995-02-03 09:00:00 TS -13.9000 94.7150 main 1384 1384 P___________P_ SH111995 -13.9000 94.7150 20 -1 -13.9000 94.7150 TC 20 7 236
1995032S10095 1995 5 SI WA HEIDA 1995-02-03 12:00:00 TS -14.1000 94.4000 main 1423 1423 O___________O_ jtwc_sh SH111995 -14.1000 94.4000 20 -1 -14.1000 94.4000 TC 20 7 238
1995032S10095 1995 5 SI WA HEIDA 1995-02-03 15:00:00 TS -14.2924 94.0724 main 1461 1461 P___________P_ SH111995 -14.2924 94.0724 22 -1 -14.2924 94.0724 TC 22 8 239
1995032S10095 1995 5 SI WA HEIDA 1995-02-03 18:00:00 TS -14.5000 93.7000 main 1507 1507 O___________O_ jtwc_sh SH111995 -14.5000 93.7000 25 -1 -14.5000 93.7000 TC 25 9 240
1995032S10095 1995 5 SI WA HEIDA 1995-02-03 21:00:00 TS -14.7425 93.2650 main 1552 1552 P___________P_ SH111995 -14.7425 93.2650 25 -1 -14.7425 93.2650 TC 25 10 240
1995032S10095 1995 5 SI WA HEIDA 1995-02-04 00:00:00 TS -15.0000 92.8000 main 1612 1612 O___________O_ jtwc_sh SH111995 -15.0000 92.8000 25 -1 -15.0000 92.8000 TC 25 10 240
1995032S10095 1995 5 SI WA HEIDA 1995-02-04 03:00:00 TS -15.2499 92.3499 main 1665 1665 P___________P_ SH111995 -15.2499 92.3499 25 -1 -15.2499 92.3499 TC 25 10 242
1995032S10095 1995 5 SI WA HEIDA 1995-02-04 06:00:00 TS -15.4778 91.8556 main 1719 1719 O____O______O_ jtwc_sh SH111995 -15.5000 91.9000 25 -1 -15.3000 91.5000 2 30 997 2.50000 2.50000 -15.5000 91.9000 TC 25 11 244
1995032S10095 1995 5 SI WA HEIDA 1995-02-04 09:00:00 TS -15.7094 91.3664 main 1770 1770 P____P______P_ SH111995 -15.7499 91.4574 25 -1 -15.5477 91.0027 2 30 996 -15.7499 91.4574 TC 25 11 244
1995032S10095 1995 5 SI WA HEIDA 1995-02-04 12:00:00 TS -15.9455 90.8636 main 1816 1816 O____O______O_ jtwc_sh SH111995 -16.0000 91.0000 25 -1 -15.8000 90.5000 2 30 995 2.50000 2.50000 -16.0000 91.0000 TC 25 11 244
1995032S10095 1995 5 SI WA HEIDA 1995-02-04 15:00:00 TS -16.1907 90.3458 main 1877 1877 P____P______P_ SH111995 -16.2573 90.5224 25 -1 -16.0574 89.9925 2 30 995 -16.2573 90.5224 TC 25 11 244
1995032S10095 1995 5 SI MM HEIDA 1995-02-04 18:00:00 TS -16.4333 89.8333 30 995 reunion main 1924 1924 O____O______O_ jtwc_sh SH111995 -16.5000 90.0000 25 -1 -16.3000 89.5000 2 30 995 2.50000 2.50000 -16.5000 90.0000 TC 25 11 246
1995032S10095 1995 5 SI MM HEIDA 1995-02-04 21:00:00 TS -16.6381 89.3056 main 1972 1972 P____P______P_ SH111995 -16.7074 89.4223 27 -1 -16.4996 89.0722 2 30 995 -16.7074 89.4223 TC 27 11 249
1995032S10095 1995 5 SI MM HEIDA 1995-02-05 00:00:00 TS -16.8333 88.7333 30 995 reunion main 2026 2026 O____O______O_ jtwc_sh SH111995 -16.9000 88.8000 30 -1 -16.7000 88.6000 2 30 995 2.50000 2.50000 -16.9000 88.8000 TC 30 12 250
1995032S10095 1995 5 SI MM HEIDA 1995-02-05 03:00:00 TS -17.0524 88.1008 main 2090 2090 P____P______P_ SH111995 -17.1074 88.1575 30 -1 -16.9425 87.9875 2 32 993 -17.1074 88.1575 TC 30 13 251
1995032S10095 1995 5 SI MM HEIDA 1995-02-05 06:00:00 TS -17.2667 87.4333 35 992 reunion main 2152 2152 O____O______O_ jtwc_sh SH111995 -17.3000 87.5000 30 -1 -17.2000 87.3000 3 35 992 3.00000 3.00000 -17.3000 87.5000 TC 30 13 253
1995032S10095 1995 5 SI MM HEIDA 1995-02-05 09:00:00 TS -17.4448 86.7714 main 2200 2200 P____P______P_ SH111995 -17.4422 86.8571 32 -1 -17.4499 86.5999 3 37 991 -17.4422 86.8571 TC 32 13 254
1995032S10095 1995 5 SI MM HEIDA 1995-02-05 12:00:00 TS -17.6333 86.1000 40 990 reunion main 2264 2264 O____O______O_ jtwc_sh SH111995 -17.6000 86.2000 35 0 -17.7000 85.9000 3 40 990 3.00000 3.00000 -17.6000 86.2000 TC 35 14 251
1995032S10095 1995 5 SI MM HEIDA 1995-02-05 15:00:00 TS -17.8830 85.4267 main 2338 2338 P____P______P_ SH111995 -17.8423 85.5076 35 0 -17.9645 85.2649 3 40 990 -17.8423 85.5076 TC 35 14 249
1995032S10095 1995 5 SI MM HEIDA 1995-02-05 18:00:00 TS -18.1333 84.7333 40 990 reunion main 2403 2403 O____O______O_ jtwc_sh SH111995 -18.1000 84.8000 35 0 -18.2000 84.6000 3 40 990 3.00000 3.00000 -18.1000 84.8000 TC 35 14 251
1995032S10095 1995 5 SI MM HEIDA 1995-02-05 21:00:00 TS -18.3339 84.0123 main 2470 2470 P____P______P_ SH111995 -18.3147 84.0998 37 0 -18.3722 83.8373 3 37 991 -18.3147 84.0998 TC 37 14 255
1995032S10095 1995 5 SI MM HEIDA 1995-02-06 00:00:00 TS -18.5000 83.2667 35 992 reunion main 2537 2537 O____O______O_ jtwc_sh SH111995 -18.5000 83.4000 40 0 -18.5000 83.0000 3 35 992 2.50000 3.00000 -18.5000 83.4000 TC 40 15 258
1995032S10095 1995 5 SI MM HEIDA 1995-02-06 03:00:00 TS -18.6405 82.5098 main 2594 2518 P____P______P_ SH111995 -18.6572 82.7073 40 0 -18.6073 82.1148 3 35 992 -18.6572 82.7073 TC 40 15 260
1995032S10095 1995 5 SI MM HEIDA 1995-02-06 06:00:00 TS -18.7667 81.7333 35 992 reunion main 2507 2433 O____O______O_ jtwc_sh SH111995 -18.8000 82.0000 40 0 -18.7000 81.2000 3 35 992 2.00000 3.00000 -18.8000 82.0000 TC 40 15 260
1995032S10095 1995 5 SI MM HEIDA 1995-02-06 09:00:00 TS -18.8972 80.9382 main 2422 2348 P____P______P_ SH111995 -18.9497 81.2649 40 0 -18.7923 80.2848 3 32 993 -18.9497 81.2649 TC 40 15 260
1995032S10095 1995 5 SI MM HEIDA 1995-02-06 12:00:00 TS -19.0333 80.1333 30 995 reunion main 2337 2262 O____O______O_ jtwc_sh SH111995 -19.1000 80.5000 40 0 -18.9000 79.4000 2 30 995 2.50000 2.50000 -19.1000 80.5000 TC 40 15 260
1995032S10095 1995 5 SI MM HEIDA 1995-02-06 15:00:00 TS -19.1729 79.3356 main 2251 2177 P____P______P_ SH111995 -19.2496 79.7148 37 0 -19.0196 78.5772 2 32 993 -19.2496 79.7148 TC 37 15 259
1995032S10095 1995 5 SI MM HEIDA 1995-02-06 18:00:00 TS -19.3333 78.5333 35 992 reunion main 2167 2081 O____O______O_ jtwc_sh SH111995 -19.4000 78.9000 35 0 -19.2000 77.8000 3 35 992 3.00000 3.00000 -19.4000 78.9000 TC 35 16 257
1995032S10095 1995 5 SI MM HEIDA 1995-02-06 21:00:00 TS -19.5182 77.7015 main 2081 1995 P____P______P_ SH111995 -19.5424 78.0423 35 0 -19.4699 77.0201 3 35 992 -19.5424 78.0423 TC 35 16 255
1995032S10095 1995 5 SI MM HEIDA 1995-02-07 00:00:00 TS -19.7333 76.9000 35 992 reunion main 1995 1919 O____O______O_ jtwc_sh SH111995 -19.7000 77.2000 35 0 -19.8000 76.3000 3 35 992 2.50000 3.00000 -19.7000 77.2000 TC 35 15 253
1995032S10095 1995 5 SI MM HEIDA 1995-02-07 03:00:00 TS -19.9655 76.1698 main 1919 1845 P____P______P_ SH111995 -19.8846 76.4273 35 0 -20.1273 75.6547 3 35 992 -19.8846 76.4273 TC 35 14 249
1995032S10095 1995 5 SI MM HEIDA 1995-02-07 06:00:00 TS -20.2333 75.5000 35 992 reunion main 1845 1781 O____O______O_ jtwc_sh SH111995 -20.1000 75.7000 35 0 -20.5000 75.1000 3 35 992 2.50000 3.00000 -20.1000 75.7000 TC 35 14 246
1995032S10095 1995 5 SI MM HEIDA 1995-02-07 09:00:00 TS -20.5198 74.8481 main 1770 1717 P____P______P_ SH111995 -20.3273 74.9772 32 -1 -20.9049 74.5899 3 32 993 -20.3273 74.9772 TC 32 13 241
1995032S10095 1995 5 SI MM HEIDA 1995-02-07 12:00:00 TS -20.8667 74.2667 30 995 reunion main 1717 1665 O____O______O_ jtwc_sh SH111995 -20.6000 74.3000 30 -1 -21.4000 74.2000 2 30 995 2.50000 2.50000 -20.6000 74.3000 TC 30 13 233
1995032S10095 1995 5 SI MM HEIDA 1995-02-07 15:00:00 TS -21.2914 73.7697 main 1665 1625 P____P______P_ SH111995 -20.9198 73.6698 30 -1 -22.0348 73.9695 2 29 996 -20.9198 73.6698 TC 30 13 224
1995032S10095 1995 5 SI MM HEIDA 1995-02-07 18:00:00 TS -21.7667 73.3333 28 998 reunion main 1616 1578 O____O______O_ jtwc_sh SH111995 -21.3000 73.1000 30 -1 -22.7000 73.8000 2 28 998 2.00000 2.50000 -21.3000 73.1000 TC 30 12 220
1995032S10095 1995 5 SI MM HEIDA 1995-02-07 21:00:00 TS -22.2502 72.9148 main 1579 1543 P____P______P_ SH111995 -21.7353 72.5856 27 -1 -23.2802 73.5731 2 26 1000 -21.7353 72.5856 TC 27 12 219
1995032S10095 1995 5 SI MM HEIDA 1995-02-08 00:00:00 TS -22.7333 72.5000 25 1002 reunion main 1543 O____O______O_ jtwc_sh SH111995 -22.2000 72.1000 25 -1 -23.8000 73.3000 6 25 1002 1.50000 2.00000 -22.2000 72.1000 TC 25 12 218

IBTrACS Databaseについて

本データベースは、米国NOAAが公開する1842年以降の世界の熱帯低気圧のベストトラックデータアーカイブInternational Best Track Archive for Climate Stewardship (IBTrACS)を、ウェブで閲覧しやすい形式に変換したものです。

最終更新日:2021-12-03